Marcus Hook, Pennsylvania
Current Conditions -  °F | °C
As of 9:29 AM on Wednesday 22 Oct 2014 (Local Time) from KPHL Reporting Station
Overcast Overcast  
Wind Chill: 57°   Ceiling: 1600
Heat Index: 57°   Visibility: 10mi
Dew Point: 52°   Wind: 18mph
Humidity: 83%   Direction: 40°NE
Pressure: 29.88"   Gusts: 29mph
Location:  39.82°N, 75.42°W
Report Text: KPHL 221329Z 04016G25KT 10SM BKN016 OVC075 14/11 A2988 RMK AO2 PK WND 36032/1300 T01390111 $
Loading
Personal Weather Stations






























Interactive Weather Map
Tropical Storm Tracking
New forecast layout! Learn more

10-Day Weather Forecast

Advertisements
Track Severe Weather on mobile